sensor_id;sensor_type;location;lat;lon;timestamp;pressure;altitude;pressure_sealevel;temperature;humidity
19576;BME280;41589;51.196;7.074;2023-03-30T00:01:22;98187.31;;;15.33;55.33
19576;BME280;41589;51.196;7.074;2023-03-30T00:06:22;98182.16;;;15.31;55.03
19576;BME280;41589;51.196;7.074;2023-03-30T00:11:24;98171.81;;;15.39;54.79
19576;BME280;41589;51.196;7.074;2023-03-30T00:16:25;98174.66;;;15.39;54.48
19576;BME280;41589;51.196;7.074;2023-03-30T00:21:26;98163.31;;;15.45;54.38
19576;BME280;41589;51.196;7.074;2023-03-30T00:26:27;98157.59;;;15.50;54.06
19576;BME280;41589;51.196;7.074;2023-03-30T00:31:27;98152.97;;;15.53;53.80
19576;BME280;41589;51.196;7.074;2023-03-30T00:36:27;98148.06;;;15.53;53.68
19576;BME280;41589;51.196;7.074;2023-03-30T00:41:29;98152.47;;;15.49;53.47
19576;BME280;41589;51.196;7.074;2023-03-30T00:46:30;98162.25;;;15.53;53.34
19576;BME280;41589;51.196;7.074;2023-03-30T00:51:34;98159.94;;;15.52;52.90
19576;BME280;41589;51.196;7.074;2023-03-30T00:56:36;98144.22;;;15.51;52.74
19576;BME280;41589;51.196;7.074;2023-03-30T01:01:38;98132.09;;;15.50;52.42
19576;BME280;41589;51.196;7.074;2023-03-30T01:06:40;98122.56;;;15.48;52.37
19576;BME280;41589;51.196;7.074;2023-03-30T01:11:42;98106.31;;;15.54;52.14
19576;BME280;41589;51.196;7.074;2023-03-30T01:16:58;98095.69;;;15.60;52.08
19576;BME280;41589;51.196;7.074;2023-03-30T01:33:40;98098.69;;;15.90;50.82
19576;BME280;41589;51.196;7.074;2023-03-30T01:49:40;98119.00;;;16.00;50.01
19576;BME280;41589;51.196;7.074;2023-03-30T01:54:50;98112.28;;;16.03;50.08
19576;BME280;41589;51.196;7.074;2023-03-30T02:00:00;98118.47;;;16.01;50.02
19576;BME280;41589;51.196;7.074;2023-03-30T02:05:15;98117.94;;;16.08;49.77
19576;BME280;41589;51.196;7.074;2023-03-30T02:10:18;98112.25;;;16.08;49.54
19576;BME280;41589;51.196;7.074;2023-03-30T02:15:24;98104.75;;;16.11;49.61
19576;BME280;41589;51.196;7.074;2023-03-30T02:20:26;98097.53;;;16.10;49.87
19576;BME280;41589;51.196;7.074;2023-03-30T02:25:28;98102.44;;;16.09;49.62
19576;BME280;41589;51.196;7.074;2023-03-30T02:30:38;98066.06;;;16.08;49.79
19576;BME280;41589;51.196;7.074;2023-03-30T02:35:52;98069.66;;;16.14;49.33
19576;BME280;41589;51.196;7.074;2023-03-30T02:41:06;98053.09;;;16.18;49.64
19576;BME280;41589;51.196;7.074;2023-03-30T02:46:40;98034.03;;;16.13;49.55
19576;BME280;41589;51.196;7.074;2023-03-30T02:51:50;98032.25;;;16.10;49.47
19576;BME280;41589;51.196;7.074;2023-03-30T02:57:28;98042.81;;;16.15;49.78
19576;BME280;41589;51.196;7.074;2023-03-30T03:02:51;98012.59;;;16.17;49.59
19576;BME280;41589;51.196;7.074;2023-03-30T03:07:59;98015.38;;;16.23;49.30
19576;BME280;41589;51.196;7.074;2023-03-30T03:12:59;98015.88;;;16.27;49.48
19576;BME280;41589;51.196;7.074;2023-03-30T03:18:00;98013.50;;;16.31;49.23
19576;BME280;41589;51.196;7.074;2023-03-30T03:23:00;98007.06;;;16.31;49.49
19576;BME280;41589;51.196;7.074;2023-03-30T03:28:04;98020.53;;;16.25;49.47
19576;BME280;41589;51.196;7.074;2023-03-30T03:33:17;98000.84;;;16.32;49.50
19576;BME280;41589;51.196;7.074;2023-03-30T03:38:27;98004.50;;;16.27;49.49
19576;BME280;41589;51.196;7.074;2023-03-30T03:43:30;98008.81;;;16.34;49.76
19576;BME280;41589;51.196;7.074;2023-03-30T03:48:30;97990.97;;;16.39;49.65
19576;BME280;41589;51.196;7.074;2023-03-30T03:53:31;97995.47;;;16.29;49.56
19576;BME280;41589;51.196;7.074;2023-03-30T03:58:35;97974.09;;;16.22;49.65
19576;BME280;41589;51.196;7.074;2023-03-30T04:03:35;97984.97;;;16.18;49.74
19576;BME280;41589;51.196;7.074;2023-03-30T04:08:36;97975.63;;;16.23;50.05
19576;BME280;41589;51.196;7.074;2023-03-30T04:13:44;97965.53;;;16.28;49.68
19576;BME280;41589;51.196;7.074;2023-03-30T04:18:52;97961.19;;;16.21;49.84
19576;BME280;41589;51.196;7.074;2023-03-30T04:23:55;97953.94;;;16.26;49.93
19576;BME280;41589;51.196;7.074;2023-03-30T04:29:14;97943.06;;;16.30;49.77
19576;BME280;41589;51.196;7.074;2023-03-30T04:34:36;97936.94;;;16.20;49.97
19576;BME280;41589;51.196;7.074;2023-03-30T04:39:44;97944.75;;;16.14;50.15
19576;BME280;41589;51.196;7.074;2023-03-30T04:45:03;97951.47;;;16.11;50.28
19576;BME280;41589;51.196;7.074;2023-03-30T04:50:33;97952.97;;;16.17;50.22
19576;BME280;41589;51.196;7.074;2023-03-30T04:56:02;97961.03;;;16.13;49.93
19576;BME280;41589;51.196;7.074;2023-03-30T05:01:15;97961.97;;;16.22;49.70
19576;BME280;41589;51.196;7.074;2023-03-30T05:06:35;97966.09;;;16.21;50.21
19576;BME280;41589;51.196;7.074;2023-03-30T05:11:59;97957.53;;;16.26;49.92
19576;BME280;41589;51.196;7.074;2023-03-30T05:17:08;97974.75;;;16.34;50.14
19576;BME280;41589;51.196;7.074;2023-03-30T05:22:44;97964.00;;;16.27;49.83
19576;BME280;41589;51.196;7.074;2023-03-30T05:28:09;97971.22;;;16.28;49.90
19576;BME280;41589;51.196;7.074;2023-03-30T05:33:18;97978.97;;;16.27;49.71
19576;BME280;41589;51.196;7.074;2023-03-30T05:38:31;97980.88;;;16.13;50.28
19576;BME280;41589;51.196;7.074;2023-03-30T05:43:50;97981.59;;;16.20;50.36
19576;BME280;41589;51.196;7.074;2023-03-30T05:49:07;97998.16;;;16.15;50.46
19576;BME280;41589;51.196;7.074;2023-03-30T05:54:36;97999.69;;;16.16;50.64
19576;BME280;41589;51.196;7.074;2023-03-30T05:59:44;98001.47;;;16.20;50.78
19576;BME280;41589;51.196;7.074;2023-03-30T06:04:55;98008.91;;;16.23;50.63
19576;BME280;41589;51.196;7.074;2023-03-30T06:09:56;97993.06;;;16.38;50.67
19576;BME280;41589;51.196;7.074;2023-03-30T06:15:01;98007.50;;;16.40;50.23
19576;BME280;41589;51.196;7.074;2023-03-30T06:20:16;98005.41;;;16.41;50.48
19576;BME280;41589;51.196;7.074;2023-03-30T06:25:19;98004.66;;;16.40;50.65
19576;BME280;41589;51.196;7.074;2023-03-30T06:30:20;97997.19;;;16.37;50.80
19576;BME280;41589;51.196;7.074;2023-03-30T06:35:26;97996.47;;;16.31;50.75
19576;BME280;41589;51.196;7.074;2023-03-30T06:40:27;97998.78;;;16.33;50.88
19576;BME280;41589;51.196;7.074;2023-03-30T06:45:29;97993.19;;;16.22;51.00
19576;BME280;41589;51.196;7.074;2023-03-30T06:50:30;97997.00;;;16.30;50.90
19576;BME280;41589;51.196;7.074;2023-03-30T06:55:54;98001.91;;;16.29;50.77
19576;BME280;41589;51.196;7.074;2023-03-30T07:00:56;98006.53;;;16.32;50.31
19576;BME280;41589;51.196;7.074;2023-03-30T07:06:29;98003.41;;;16.36;50.72
19576;BME280;41589;51.196;7.074;2023-03-30T07:11:29;98008.00;;;16.44;50.28
19576;BME280;41589;51.196;7.074;2023-03-30T07:16:30;98009.31;;;16.38;50.18
19576;BME280;41589;51.196;7.074;2023-03-30T07:21:31;98011.63;;;16.39;50.29
19576;BME280;41589;51.196;7.074;2023-03-30T07:26:32;98008.25;;;16.41;50.45
19576;BME280;41589;51.196;7.074;2023-03-30T07:31:38;98010.66;;;16.31;50.20
19576;BME280;41589;51.196;7.074;2023-03-30T07:36:41;98003.44;;;16.30;50.38
19576;BME280;41589;51.196;7.074;2023-03-30T07:41:42;98012.72;;;16.31;50.70
19576;BME280;41589;51.196;7.074;2023-03-30T07:46:43;98016.66;;;16.22;50.83
19576;BME280;41589;51.196;7.074;2023-03-30T07:51:52;98015.50;;;16.06;51.22
19576;BME280;41589;51.196;7.074;2023-03-30T07:56:59;98020.91;;;16.10;51.55
19576;BME280;41589;51.196;7.074;2023-03-30T08:02:00;98006.16;;;16.17;51.47
19576;BME280;41589;51.196;7.074;2023-03-30T08:07:14;98014.69;;;16.11;52.33
19576;BME280;41589;51.196;7.074;2023-03-30T08:12:16;98019.88;;;16.07;52.36
19576;BME280;41589;51.196;7.074;2023-03-30T08:17:16;98087.38;;;14.98;59.67
19576;BME280;41589;51.196;7.074;2023-03-30T08:22:18;98090.59;;;13.14;68.73
19576;BME280;41589;51.196;7.074;2023-03-30T08:27:18;98093.50;;;12.51;76.23
19576;BME280;41589;51.196;7.074;2023-03-30T08:32:19;98093.50;;;12.25;80.99
19576;BME280;41589;51.196;7.074;2023-03-30T08:37:19;98094.91;;;12.09;86.31
19576;BME280;41589;51.196;7.074;2023-03-30T08:42:44;98106.44;;;12.11;90.80
19576;BME280;41589;51.196;7.074;2023-03-30T08:47:50;98100.53;;;12.09;92.17
19576;BME280;41589;51.196;7.074;2023-03-30T08:52:51;98099.31;;;12.16;95.09
19576;BME280;41589;51.196;7.074;2023-03-30T09:03:37;98098.53;;;12.41;100.00
19576;BME280;41589;51.196;7.074;2023-03-30T09:08:39;98100.44;;;12.50;100.00
19576;BME280;41589;51.196;7.074;2023-03-30T09:13:42;98098.66;;;12.90;100.00
19576;BME280;41589;51.196;7.074;2023-03-30T09:18:48;98095.22;;;13.17;100.00
19576;BME280;41589;51.196;7.074;2023-03-30T09:23:50;98093.44;;;13.68;100.00
19576;BME280;41589;51.196;7.074;2023-03-30T09:29:00;98108.91;;;13.84;100.00
19576;BME280;41589;51.196;7.074;2023-03-30T09:39:23;98159.91;;;13.10;99.50
19576;BME280;41589;51.196;7.074;2023-03-30T09:44:35;98161.47;;;12.27;99.38
19576;BME280;41589;51.196;7.074;2023-03-30T09:49:37;98153.53;;;11.79;99.36
19576;BME280;41589;51.196;7.074;2023-03-30T09:54:39;98171.72;;;11.58;100.00
19576;BME280;41589;51.196;7.074;2023-03-30T09:59:40;98185.44;;;11.50;100.00
19576;BME280;41589;51.196;7.074;2023-03-30T10:10:22;98211.84;;;11.33;100.00
19576;BME280;41589;51.196;7.074;2023-03-30T10:15:27;98201.94;;;11.22;100.00
19576;BME280;41589;51.196;7.074;2023-03-30T10:20:35;98200.50;;;11.27;100.00
19576;BME280;41589;51.196;7.074;2023-03-30T10:25:40;98191.03;;;11.45;100.00
19576;BME280;41589;51.196;7.074;2023-03-30T10:30:40;98192.72;;;11.57;100.00
19576;BME280;41589;51.196;7.074;2023-03-30T10:35:50;98182.50;;;11.60;100.00
19576;BME280;41589;51.196;7.074;2023-03-30T10:40:59;98184.97;;;11.72;100.00
19576;BME280;41589;51.196;7.074;2023-03-30T10:51:16;98191.84;;;12.12;100.00
19576;BME280;41589;51.196;7.074;2023-03-30T10:56:45;98193.78;;;12.26;100.00
19576;BME280;41589;51.196;7.074;2023-03-30T11:07:51;98197.56;;;12.43;100.00
19576;BME280;41589;51.196;7.074;2023-03-30T11:18:18;98179.16;;;13.06;100.00
19576;BME280;41589;51.196;7.074;2023-03-30T11:29:01;98189.50;;;13.57;100.00
19576;BME280;41589;51.196;7.074;2023-03-30T11:39:32;98196.69;;;13.58;100.00
19576;BME280;41589;51.196;7.074;2023-03-30T11:44:32;98198.06;;;13.31;100.00
19576;BME280;41589;51.196;7.074;2023-03-30T11:55:29;98189.31;;;13.66;100.00
19576;BME280;41589;51.196;7.074;2023-03-30T12:00:47;98187.81;;;13.76;100.00
19576;BME280;41589;51.196;7.074;2023-03-30T12:05:55;98190.41;;;13.80;100.00
19576;BME280;41589;51.196;7.074;2023-03-30T12:11:11;98176.47;;;13.71;100.00
19576;BME280;41589;51.196;7.074;2023-03-30T12:16:24;98185.63;;;13.54;100.00
19576;BME280;41589;51.196;7.074;2023-03-30T12:26:52;98186.56;;;13.40;100.00
19576;BME280;41589;51.196;7.074;2023-03-30T12:37:06;98191.88;;;13.27;100.00
19576;BME280;41589;51.196;7.074;2023-03-30T12:42:20;98197.22;;;13.19;100.00
19576;BME280;41589;51.196;7.074;2023-03-30T13:03:38;98205.50;;;12.91;100.00
19576;BME280;41589;51.196;7.074;2023-03-30T13:08:40;98202.84;;;13.14;100.00
19576;BME280;41589;51.196;7.074;2023-03-30T13:13:57;98199.41;;;13.41;100.00
19576;BME280;41589;51.196;7.074;2023-03-30T13:19:12;98195.66;;;13.55;100.00
19576;BME280;41589;51.196;7.074;2023-03-30T13:29:27;98189.88;;;13.76;100.00
19576;BME280;41589;51.196;7.074;2023-03-30T13:40:13;98184.47;;;13.78;100.00
19576;BME280;41589;51.196;7.074;2023-03-30T13:45:41;98174.44;;;13.77;100.00
19576;BME280;41589;51.196;7.074;2023-03-30T13:50:53;98177.25;;;13.71;100.00
19576;BME280;41589;51.196;7.074;2023-03-30T13:55:56;98173.38;;;13.69;100.00
19576;BME280;41589;51.196;7.074;2023-03-30T14:01:04;98180.56;;;13.64;100.00
19576;BME280;41589;51.196;7.074;2023-03-30T14:06:18;98165.53;;;13.95;100.00
19576;BME280;41589;51.196;7.074;2023-03-30T14:11:22;98179.94;;;13.97;100.00
19576;BME280;41589;51.196;7.074;2023-03-30T14:16:30;98177.13;;;14.03;100.00
19576;BME280;41589;51.196;7.074;2023-03-30T14:21:31;98176.59;;;14.04;100.00
19576;BME280;41589;51.196;7.074;2023-03-30T14:26:31;98160.97;;;14.20;100.00
19576;BME280;41589;51.196;7.074;2023-03-30T14:31:39;98166.16;;;14.44;100.00
19576;BME280;41589;51.196;7.074;2023-03-30T14:36:43;98155.31;;;14.31;100.00
19576;BME280;41589;51.196;7.074;2023-03-30T14:41:44;98164.47;;;13.87;100.00
19576;BME280;41589;51.196;7.074;2023-03-30T14:46:47;98187.84;;;13.82;100.00
19576;BME280;41589;51.196;7.074;2023-03-30T14:51:51;98161.59;;;13.76;100.00
19576;BME280;41589;51.196;7.074;2023-03-30T14:56:56;98163.16;;;13.82;100.00
19576;BME280;41589;51.196;7.074;2023-03-30T15:01:58;98165.50;;;13.84;100.00
19576;BME280;41589;51.196;7.074;2023-03-30T15:07:00;98146.97;;;13.88;100.00
19576;BME280;41589;51.196;7.074;2023-03-30T15:12:02;98148.34;;;14.15;100.00
19576;BME280;41589;51.196;7.074;2023-03-30T15:17:15;98141.97;;;14.43;100.00
19576;BME280;41589;51.196;7.074;2023-03-30T15:22:36;98144.53;;;14.30;100.00
19576;BME280;41589;51.196;7.074;2023-03-30T15:27:38;98132.69;;;14.31;100.00
19576;BME280;41589;51.196;7.074;2023-03-30T15:32:42;98138.03;;;14.12;100.00
19576;BME280;41589;51.196;7.074;2023-03-30T15:38:04;98135.41;;;13.92;100.00
19576;BME280;41589;51.196;7.074;2023-03-30T15:48:30;98143.81;;;13.64;100.00
19576;BME280;41589;51.196;7.074;2023-03-30T15:53:50;98145.28;;;13.59;100.00
19576;BME280;41589;51.196;7.074;2023-03-30T15:58:51;98150.59;;;13.41;100.00
19576;BME280;41589;51.196;7.074;2023-03-30T16:03:55;98151.88;;;13.40;100.00
19576;BME280;41589;51.196;7.074;2023-03-30T16:08:58;98159.25;;;13.31;100.00
19576;BME280;41589;51.196;7.074;2023-03-30T16:13:59;98158.84;;;13.44;100.00
19576;BME280;41589;51.196;7.074;2023-03-30T16:18:59;98152.25;;;13.21;100.00
19576;BME280;41589;51.196;7.074;2023-03-30T16:24:00;98164.78;;;13.09;100.00
19576;BME280;41589;51.196;7.074;2023-03-30T16:29:02;98149.94;;;13.20;100.00
19576;BME280;41589;51.196;7.074;2023-03-30T16:34:02;98145.38;;;13.22;100.00
19576;BME280;41589;51.196;7.074;2023-03-30T16:39:02;98151.50;;;13.21;100.00
19576;BME280;41589;51.196;7.074;2023-03-30T16:44:05;98140.94;;;13.16;100.00
19576;BME280;41589;51.196;7.074;2023-03-30T16:49:14;98151.13;;;13.02;100.00
19576;BME280;41589;51.196;7.074;2023-03-30T16:54:16;98158.28;;;12.97;100.00
19576;BME280;41589;51.196;7.074;2023-03-30T16:59:22;98159.78;;;12.93;100.00
19576;BME280;41589;51.196;7.074;2023-03-30T17:04:26;98164.19;;;12.99;100.00
19576;BME280;41589;51.196;7.074;2023-03-30T17:09:26;98157.78;;;12.99;100.00
19576;BME280;41589;51.196;7.074;2023-03-30T17:14:32;98163.47;;;13.05;100.00
19576;BME280;41589;51.196;7.074;2023-03-30T17:19:35;98160.59;;;12.99;100.00
19576;BME280;41589;51.196;7.074;2023-03-30T17:24:36;98160.66;;;13.05;100.00
19576;BME280;41589;51.196;7.074;2023-03-30T17:29:37;98171.94;;;13.05;100.00
19576;BME280;41589;51.196;7.074;2023-03-30T17:34:38;98182.41;;;12.98;100.00
19576;BME280;41589;51.196;7.074;2023-03-30T17:39:40;98184.78;;;13.06;100.00
19576;BME280;41589;51.196;7.074;2023-03-30T17:44:41;98189.09;;;12.95;100.00
19576;BME280;41589;51.196;7.074;2023-03-30T17:49:42;98188.50;;;12.86;100.00
19576;BME280;41589;51.196;7.074;2023-03-30T17:54:43;98193.53;;;12.76;100.00
19576;BME280;41589;51.196;7.074;2023-03-30T17:59:44;98191.50;;;12.77;100.00
19576;BME280;41589;51.196;7.074;2023-03-30T18:04:44;98202.84;;;12.82;100.00
19576;BME280;41589;51.196;7.074;2023-03-30T18:09:45;98198.69;;;12.78;100.00
19576;BME280;41589;51.196;7.074;2023-03-30T18:14:45;98199.63;;;12.69;100.00
19576;BME280;41589;51.196;7.074;2023-03-30T18:19:46;98200.38;;;12.64;100.00
19576;BME280;41589;51.196;7.074;2023-03-30T18:24:46;98201.19;;;12.70;100.00
19576;BME280;41589;51.196;7.074;2023-03-30T18:29:47;98197.63;;;12.75;100.00
19576;BME280;41589;51.196;7.074;2023-03-30T18:34:47;98209.19;;;12.77;100.00
19576;BME280;41589;51.196;7.074;2023-03-30T18:39:47;98198.69;;;12.78;100.00
19576;BME280;41589;51.196;7.074;2023-03-30T18:44:48;98193.28;;;12.74;100.00
19576;BME280;41589;51.196;7.074;2023-03-30T18:49:48;98200.19;;;12.73;100.00
19576;BME280;41589;51.196;7.074;2023-03-30T18:54:49;98199.69;;;12.75;100.00
19576;BME280;41589;51.196;7.074;2023-03-30T18:59:50;98205.41;;;12.80;100.00
19576;BME280;41589;51.196;7.074;2023-03-30T19:04:51;98192.81;;;12.81;100.00
19576;BME280;41589;51.196;7.074;2023-03-30T19:09:56;98196.09;;;12.74;100.00
19576;BME280;41589;51.196;7.074;2023-03-30T19:14:57;98200.22;;;12.79;100.00
19576;BME280;41589;51.196;7.074;2023-03-30T19:19:58;98198.19;;;12.79;100.00
19576;BME280;41589;51.196;7.074;2023-03-30T19:24:59;98213.03;;;12.74;100.00
19576;BME280;41589;51.196;7.074;2023-03-30T19:30:00;98213.81;;;12.75;100.00
19576;BME280;41589;51.196;7.074;2023-03-30T19:35:01;98202.28;;;12.78;100.00
19576;BME280;41589;51.196;7.074;2023-03-30T19:40:05;98202.00;;;12.76;100.00
19576;BME280;41589;51.196;7.074;2023-03-30T19:45:07;98199.94;;;12.71;100.00
19576;BME280;41589;51.196;7.074;2023-03-30T19:50:09;98191.22;;;12.75;100.00
19576;BME280;41589;51.196;7.074;2023-03-30T19:55:10;98186.84;;;12.73;100.00
19576;BME280;41589;51.196;7.074;2023-03-30T20:00:13;98181.13;;;12.68;100.00
19576;BME280;41589;51.196;7.074;2023-03-30T20:05:17;98184.25;;;12.70;100.00
19576;BME280;41589;51.196;7.074;2023-03-30T20:10:24;98172.66;;;12.68;100.00
19576;BME280;41589;51.196;7.074;2023-03-30T20:15:25;98180.09;;;12.65;100.00
19576;BME280;41589;51.196;7.074;2023-03-30T20:20:26;98162.63;;;12.61;100.00
19576;BME280;41589;51.196;7.074;2023-03-30T20:25:27;98173.41;;;12.63;100.00
19576;BME280;41589;51.196;7.074;2023-03-30T20:30:27;98163.59;;;12.58;100.00
19576;BME280;41589;51.196;7.074;2023-03-30T20:35:27;98167.50;;;12.61;100.00
19576;BME280;41589;51.196;7.074;2023-03-30T20:40:29;98160.75;;;12.53;100.00
19576;BME280;41589;51.196;7.074;2023-03-30T20:45:30;98167.88;;;12.48;100.00
19576;BME280;41589;51.196;7.074;2023-03-30T20:50:30;98161.19;;;12.46;100.00
19576;BME280;41589;51.196;7.074;2023-03-30T20:55:32;98157.53;;;12.39;100.00
19576;BME280;41589;51.196;7.074;2023-03-30T21:00:33;98154.91;;;12.36;100.00
19576;BME280;41589;51.196;7.074;2023-03-30T21:05:33;98144.13;;;12.34;100.00
19576;BME280;41589;51.196;7.074;2023-03-30T21:10:33;98144.50;;;12.22;100.00
19576;BME280;41589;51.196;7.074;2023-03-30T21:15:34;98134.78;;;12.23;100.00
19576;BME280;41589;51.196;7.074;2023-03-30T21:20:34;98129.66;;;12.27;100.00
19576;BME280;41589;51.196;7.074;2023-03-30T21:25:35;98123.75;;;12.25;100.00
19576;BME280;41589;51.196;7.074;2023-03-30T21:30:35;98120.94;;;12.25;100.00
19576;BME280;41589;51.196;7.074;2023-03-30T21:35:36;98110.66;;;12.22;100.00
19576;BME280;41589;51.196;7.074;2023-03-30T21:40:36;98107.34;;;12.23;100.00
19576;BME280;41589;51.196;7.074;2023-03-30T21:45:36;98102.13;;;12.16;100.00
19576;BME280;41589;51.196;7.074;2023-03-30T21:50:37;98094.41;;;12.11;100.00
19576;BME280;41589;51.196;7.074;2023-03-30T21:55:37;98088.53;;;12.14;100.00
19576;BME280;41589;51.196;7.074;2023-03-30T22:00:37;98088.31;;;12.18;100.00
19576;BME280;41589;51.196;7.074;2023-03-30T22:05:39;98078.94;;;12.06;100.00
19576;BME280;41589;51.196;7.074;2023-03-30T22:10:40;98076.44;;;12.08;100.00
19576;BME280;41589;51.196;7.074;2023-03-30T22:15:41;98072.75;;;12.28;100.00
19576;BME280;41589;51.196;7.074;2023-03-30T22:20:41;98070.75;;;12.34;100.00
19576;BME280;41589;51.196;7.074;2023-03-30T22:25:45;98058.66;;;12.28;100.00
19576;BME280;41589;51.196;7.074;2023-03-30T22:30:46;98058.69;;;12.34;100.00
19576;BME280;41589;51.196;7.074;2023-03-30T22:35:46;98051.78;;;12.35;100.00
19576;BME280;41589;51.196;7.074;2023-03-30T22:40:47;98041.81;;;12.39;100.00
19576;BME280;41589;51.196;7.074;2023-03-30T22:45:47;98043.53;;;12.31;100.00
19576;BME280;41589;51.196;7.074;2023-03-30T22:50:48;98038.41;;;12.30;100.00
19576;BME280;41589;51.196;7.074;2023-03-30T22:55:48;98030.44;;;12.28;100.00
19576;BME280;41589;51.196;7.074;2023-03-30T23:00:48;98023.47;;;12.24;100.00
19576;BME280;41589;51.196;7.074;2023-03-30T23:05:50;98022.75;;;12.29;100.00
19576;BME280;41589;51.196;7.074;2023-03-30T23:10:50;98004.50;;;12.24;100.00
19576;BME280;41589;51.196;7.074;2023-03-30T23:15:52;98012.19;;;12.24;100.00
19576;BME280;41589;51.196;7.074;2023-03-30T23:20:55;97997.81;;;12.22;100.00
19576;BME280;41589;51.196;7.074;2023-03-30T23:25:57;97991.94;;;12.25;100.00
19576;BME280;41589;51.196;7.074;2023-03-30T23:30:57;97985.19;;;12.17;100.00
19576;BME280;41589;51.196;7.074;2023-03-30T23:35:57;97984.72;;;12.19;100.00
19576;BME280;41589;51.196;7.074;2023-03-30T23:40:58;97976.97;;;12.13;100.00
19576;BME280;41589;51.196;7.074;2023-03-30T23:45:59;97975.47;;;12.18;100.00
19576;BME280;41589;51.196;7.074;2023-03-30T23:50:59;97968.25;;;12.17;100.00
19576;BME280;41589;51.196;7.074;2023-03-30T23:56:00;97946.44;;;12.12;100.00
